This is the latest recevied weather packets stored in our database for station/object OM2RC-6. If no packets are shown the sender has not sent any weather packets the latest 10 day(s).
| Time | Temp. | Humidity | Pressure | Rain* | Wind** | Luminosity | Snow |
|---|---|---|---|---|---|---|---|
| 1777768103 | 12.78° C | 75% | 1020.5 hPa | - | - | - | - |
| 1777767802 | 12.78° C | 73% | 1020.5 hPa | - | - | - | - |
| 1777767501 | 12.78° C | 72% | 1020.5 hPa | - | - | - | - |
| 1777767200 | 10.56° C | 92% | 1020.6 hPa | - | - | - | - |
| 1777766899 | 8.33° C | 100% | 1020.7 hPa | - | - | - | - |
| 1777766598 | 7.78° C | 100% | 1020.7 hPa | - | - | - | - |
| 1777766295 | 7.78° C | 100% | 1020.7 hPa | - | - | - | - |
| 1777765994 | 8.33° C | 100% | 1020.8 hPa | - | - | - | - |
| 1777765693 | 8.89° C | 100% | 1020.8 hPa | - | - | - | - |
| 1777765392 | 9.44° C | 95% | 1020.7 hPa | - | - | - | - |
| 1777765091 | 8.89° C | 100% | 1020.7 hPa | - | - | - | - |
| 1777764790 | 10.56° C | 88% | 1020.9 hPa | - | - | - | - |
| 1777764489 | 15° C | 51% | 1020.6 hPa | - | - | - | - |
| 1777764188 | 15° C | 54% | 1020.5 hPa | - | - | - | - |
| 1777763887 | 12.78° C | 69% | 1020.6 hPa | - | - | - | - |
| 1777763586 | 12.78° C | 71% | 1020.5 hPa | - | - | - | - |
| 1777763285 | 13.33° C | 71% | 1020.7 hPa | - | - | - | - |
| 1777762984 | 11.67° C | 77% | 1020.7 hPa | - | - | - | - |
| 1777762683 | 9.44° C | 99% | 1020.8 hPa | - | - | - | - |
| 1777762382 | 10° C | 94% | 1020.8 hPa | - | - | - | - |
| 1777762081 | 11.11° C | 82% | 1020.7 hPa | - | - | - | - |
| 1777761479 | 13.33° C | 63% | 1020.7 hPa | - | - | - | - |
| 1777760877 | 11.67° C | 79% | 1020.9 hPa | - | - | - | - |
| 1777760577 | 11.11° C | 80% | 1020.9 hPa | - | - | - | - |
| 1777760275 | 10.56° C | 86% | 1020.9 hPa | - | - | - | - |
* Rain since midnight (hover to see other rain measurements)
** Current wind speed in m/s (hover to see current wind gust speed)